createdAt,value
2022-10-31T00:04:08.728Z,3.97
2022-10-31T00:09:10.526Z,5.55
2022-10-31T00:14:11.942Z,6.70
2022-10-31T00:19:13.421Z,6.80
2022-10-31T00:24:14.944Z,3.05
2022-10-31T00:29:16.344Z,5.40
2022-10-31T00:34:17.732Z,4.43
2022-10-31T00:39:19.118Z,4.70
2022-10-31T00:44:20.897Z,5.35
2022-10-31T00:49:22.423Z,6.80
2022-10-31T00:54:24.510Z,3.30
2022-10-31T00:59:25.989Z,5.88
2022-10-31T01:04:27.425Z,9.93
2022-10-31T01:09:30.284Z,3.20
2022-10-31T01:14:31.696Z,3.35
2022-10-31T01:19:33.232Z,4.40
2022-10-31T01:24:34.865Z,6.47
2022-10-31T01:29:37.187Z,5.68
2022-10-31T01:34:38.585Z,7.15
2022-10-31T01:39:39.997Z,4.65
2022-10-31T01:44:41.358Z,4.82
2022-10-31T01:50:03.446Z,3.75
2022-10-31T01:55:17.184Z,5.97
2022-10-31T02:00:20.945Z,6.25
2022-10-31T02:05:26.612Z,3.33
2022-10-31T02:10:31.255Z,4.32
2022-10-31T02:15:33.855Z,5.10
2022-10-31T02:20:50.229Z,5.25
2022-10-31T02:26:18.781Z,2.70
2022-10-31T02:31:33.776Z,5.35
2022-10-31T02:36:47.016Z,2.80
2022-10-31T02:42:04.927Z,4.40
2022-10-31T02:47:12.220Z,5.20
2022-10-31T02:52:34.840Z,3.00
2022-10-31T02:57:41.083Z,5.97
2022-10-31T03:02:48.565Z,4.43
2022-10-31T03:08:07.436Z,2.85
2022-10-31T03:13:13.695Z,6.47
2022-10-31T03:18:29.066Z,4.18
2022-10-31T03:23:32.945Z,2.72
2022-10-31T03:28:45.196Z,4.38
2022-10-31T03:33:50.141Z,3.78
2022-10-31T03:38:52.285Z,3.80
2022-10-31T03:43:58.921Z,4.68
2022-10-31T03:49:01.427Z,6.13
2022-10-31T03:54:14.665Z,4.43
2022-10-31T03:59:22.306Z,3.33
2022-10-31T04:04:27.253Z,3.00
2022-10-31T04:09:33.217Z,4.65
2022-10-31T04:14:38.196Z,4.05
2022-10-31T04:19:39.760Z,6.68
2022-10-31T04:24:41.931Z,6.35
2022-10-31T04:29:48.364Z,4.00
2022-10-31T04:34:52.418Z,5.57
2022-10-31T04:39:53.867Z,6.93
2022-10-31T04:45:16.872Z,6.15
2022-10-31T04:55:25.808Z,4.45
2022-10-31T05:00:52.908Z,4.75
2022-10-31T05:05:54.407Z,3.58
2022-10-31T05:10:57.360Z,2.67
2022-10-31T05:16:02.037Z,2.17
2022-10-31T05:21:21.764Z,7.20
2022-10-31T05:26:26.920Z,2.90
2022-10-31T05:31:30.158Z,3.92
2022-10-31T05:36:31.680Z,4.88
2022-10-31T05:41:35.378Z,6.18
2022-10-31T05:46:44.439Z,3.60
2022-10-31T05:52:04.279Z,2.45
2022-10-31T05:57:15.304Z,4.50
2022-10-31T06:02:17.312Z,5.93
2022-10-31T06:12:39.106Z,5.13
2022-10-31T06:18:03.833Z,4.28
2022-10-31T06:23:09.326Z,6.53
2022-10-31T06:28:10.828Z,6.60
2022-10-31T06:33:35.122Z,4.70
2022-10-31T06:38:37.091Z,5.20
2022-10-31T06:43:42.429Z,4.25
2022-10-31T06:49:07.265Z,8.52
2022-10-31T06:54:17.600Z,3.80
2022-10-31T06:59:19.680Z,6.60
2022-10-31T07:04:41.062Z,10.63
2022-10-31T07:09:43.425Z,3.22
2022-10-31T07:14:46.612Z,10.00
2022-10-31T07:19:48.532Z,5.18
2022-10-31T07:24:52.189Z,5.78
2022-10-31T07:29:53.588Z,6.93
2022-10-31T07:34:55.036Z,4.00
2022-10-31T07:39:58.489Z,9.35
2022-10-31T07:45:00.080Z,3.85
2022-10-31T07:50:23.462Z,4.05
2022-10-31T07:55:57.184Z,6.03
2022-10-31T08:01:04.239Z,5.68
2022-10-31T08:06:14.758Z,5.07
2022-10-31T08:11:34.651Z,3.92
2022-10-31T08:16:37.188Z,5.70
2022-10-31T08:21:41.220Z,5.15
2022-10-31T08:26:44.402Z,9.25
2022-10-31T08:31:46.954Z,8.43
2022-10-31T08:37:08.299Z,7.53
2022-10-31T08:42:16.453Z,7.05
2022-10-31T08:47:18.201Z,10.25
2022-10-31T08:52:19.718Z,7.28
2022-10-31T08:57:23.001Z,5.10
2022-10-31T09:02:24.640Z,4.30
2022-10-31T09:07:31.104Z,5.95
2022-10-31T09:12:33.804Z,7.13
2022-10-31T09:17:48.057Z,6.38
2022-10-31T09:22:58.659Z,8.07
2022-10-31T09:28:01.945Z,6.05
2022-10-31T09:33:06.683Z,8.07
2022-10-31T09:38:14.815Z,9.43
2022-10-31T09:43:34.619Z,8.07
2022-10-31T09:49:06.733Z,6.07
2022-10-31T09:54:36.618Z,5.38
2022-10-31T09:59:41.498Z,8.63
2022-10-31T10:04:52.422Z,5.82
2022-10-31T10:09:55.695Z,10.02
2022-10-31T10:15:37.042Z,6.25
2022-10-31T10:20:56.949Z,6.13
2022-10-31T10:26:18.075Z,9.65
2022-10-31T10:31:28.313Z,7.15
2022-10-31T10:36:47.189Z,9.38
2022-10-31T10:41:51.186Z,5.88
2022-10-31T10:47:00.101Z,10.32
2022-10-31T10:52:50.162Z,7.50
2022-10-31T10:57:58.411Z,8.80
2022-10-31T11:03:00.503Z,8.63
2022-10-31T11:08:02.825Z,7.32
2022-10-31T11:13:24.536Z,7.50
2022-10-31T11:18:28.775Z,9.35
2022-10-31T11:23:30.946Z,9.32
2022-10-31T11:28:34.336Z,7.85
2022-10-31T11:33:47.048Z,8.45
2022-10-31T11:38:49.115Z,10.10
2022-10-31T11:44:00.557Z,10.27
2022-10-31T11:49:03.872Z,7.32
2022-10-31T11:54:06.412Z,5.82
2022-10-31T11:59:19.618Z,8.48
2022-10-31T12:04:39.875Z,9.38
2022-10-31T12:09:42.243Z,10.98
2022-10-31T12:15:01.933Z,10.32
2022-10-31T12:20:31.296Z,10.98
2022-10-31T12:25:42.439Z,8.70
2022-10-31T12:31:00.036Z,12.48
2022-10-31T12:36:27.690Z,7.70
2022-10-31T12:41:46.859Z,5.13
2022-10-31T12:47:25.291Z,9.48
2022-10-31T12:52:49.560Z,7.95
2022-10-31T12:58:04.267Z,8.20
2022-10-31T13:03:27.359Z,5.85
2022-10-31T13:08:48.827Z,7.72
2022-10-31T13:14:06.698Z,7.95
2022-10-31T13:19:26.446Z,6.38
2022-10-31T13:24:36.036Z,10.27
2022-10-31T13:29:47.765Z,6.13
2022-10-31T13:34:55.000Z,7.40
2022-10-31T13:40:22.820Z,9.90
2022-10-31T13:45:25.999Z,10.70
2022-10-31T13:50:30.036Z,8.90
2022-10-31T13:55:44.358Z,9.63
2022-10-31T14:00:45.991Z,6.47
2022-10-31T14:05:55.198Z,7.88
2022-10-31T14:10:57.162Z,6.70
2022-10-31T14:16:01.144Z,13.45
2022-10-31T14:21:13.704Z,9.35
2022-10-31T14:26:23.654Z,10.13
2022-10-31T14:31:28.095Z,11.52
2022-10-31T14:36:35.369Z,9.52
2022-10-31T14:41:55.261Z,12.38
2022-10-31T14:47:17.009Z,12.65
2022-10-31T14:52:19.887Z,13.60
2022-10-31T14:57:35.489Z,11.90
2022-10-31T15:02:50.819Z,13.45
2022-10-31T15:07:53.868Z,13.80
2022-10-31T15:12:55.270Z,12.52
2022-10-31T15:17:59.950Z,13.68
2022-10-31T15:23:01.668Z,12.90
2022-10-31T15:28:14.683Z,11.35
2022-10-31T15:33:36.764Z,14.32
2022-10-31T15:38:39.621Z,10.60
2022-10-31T15:43:41.094Z,11.88
2022-10-31T15:48:47.705Z,15.20
2022-10-31T15:53:52.445Z,12.85
2022-10-31T15:58:55.454Z,13.88
2022-10-31T16:04:13.193Z,9.35
2022-10-31T16:09:25.035Z,12.07
2022-10-31T16:14:29.777Z,17.00
2022-10-31T16:19:34.687Z,13.18
2022-10-31T16:24:49.224Z,11.90
2022-10-31T16:29:50.682Z,10.70
2022-10-31T16:35:10.799Z,15.35
2022-10-31T16:40:13.666Z,12.23
2022-10-31T16:45:24.304Z,12.30
2022-10-31T16:50:27.877Z,17.85
2022-10-31T16:55:29.423Z,12.68
2022-10-31T17:00:30.880Z,13.27
2022-10-31T17:05:32.258Z,11.77
2022-10-31T17:10:34.255Z,14.10
2022-10-31T17:15:49.804Z,11.43
2022-10-31T17:20:55.557Z,13.73
2022-10-31T17:25:57.301Z,15.10
2022-10-31T17:30:58.685Z,11.40
2022-10-31T17:36:02.897Z,16.05
2022-10-31T17:41:11.003Z,13.77
2022-10-31T17:46:13.035Z,14.45
2022-10-31T17:51:14.469Z,14.95
2022-10-31T17:56:15.926Z,15.13
2022-10-31T18:01:18.790Z,12.32
2022-10-31T18:06:20.331Z,16.30
2022-10-31T18:11:21.921Z,13.95
2022-10-31T18:16:23.991Z,15.35
2022-10-31T18:21:25.706Z,12.40
2022-10-31T18:26:27.749Z,14.85
2022-10-31T18:31:29.441Z,13.77
2022-10-31T18:36:30.979Z,17.65
2022-10-31T18:41:32.895Z,14.88
2022-10-31T18:46:35.357Z,17.08
2022-10-31T18:51:36.796Z,13.18
2022-10-31T18:56:38.213Z,12.82
2022-10-31T19:01:40.130Z,16.75
2022-10-31T19:06:41.691Z,10.05
2022-10-31T19:11:43.108Z,12.07
2022-10-31T19:16:44.544Z,10.38
2022-10-31T19:21:46.350Z,11.00
2022-10-31T19:26:48.352Z,13.55
2022-10-31T19:31:49.765Z,10.82
2022-10-31T19:36:51.169Z,13.02
2022-10-31T19:41:52.574Z,14.65
2022-10-31T19:46:54.404Z,10.50
2022-10-31T19:51:55.872Z,14.52
2022-10-31T19:56:57.283Z,13.55
2022-10-31T20:01:58.729Z,12.10
2022-10-31T20:07:00.166Z,14.32
2022-10-31T20:12:02.808Z,14.63
2022-10-31T20:17:04.524Z,18.20
2022-10-31T20:22:05.941Z,13.98
2022-10-31T20:27:07.449Z,13.63
2022-10-31T20:32:08.849Z,22.10
2022-10-31T20:37:10.272Z,10.27
2022-10-31T20:42:11.664Z,11.68
2022-10-31T20:47:13.100Z,14.63
2022-10-31T20:52:14.521Z,15.23
2022-10-31T20:57:15.949Z,11.82
2022-10-31T21:02:17.467Z,14.45
2022-10-31T21:07:18.929Z,12.07
2022-10-31T21:12:20.309Z,14.07
2022-10-31T21:17:22.919Z,10.07
2022-10-31T21:22:24.339Z,11.57
2022-10-31T21:27:25.880Z,12.10
2022-10-31T21:32:27.293Z,12.88
2022-10-31T21:37:28.676Z,14.38
2022-10-31T21:42:30.058Z,11.07
2022-10-31T21:47:31.457Z,11.68
2022-10-31T21:52:32.869Z,12.85
2022-10-31T21:57:34.289Z,13.93
2022-10-31T22:02:36.503Z,13.85
2022-10-31T22:07:37.880Z,11.93
2022-10-31T22:12:39.249Z,11.05
2022-10-31T22:17:40.707Z,10.93
2022-10-31T22:22:42.113Z,10.15
2022-10-31T22:27:43.527Z,10.50
2022-10-31T22:32:44.923Z,9.55
2022-10-31T22:37:46.353Z,9.88
2022-10-31T22:42:47.751Z,12.65
2022-10-31T22:47:49.156Z,9.85
2022-10-31T22:52:50.572Z,13.52
2022-10-31T22:57:51.966Z,9.82
2022-10-31T23:02:53.324Z,11.10
2022-10-31T23:07:54.711Z,10.98
2022-10-31T23:12:56.109Z,9.98
2022-10-31T23:17:57.508Z,9.43
2022-10-31T23:22:59.330Z,7.60
2022-10-31T23:28:00.976Z,7.22
2022-10-31T23:33:02.667Z,7.72
2022-10-31T23:38:04.511Z,7.97
2022-10-31T23:43:06.981Z,6.90
2022-10-31T23:48:08.412Z,8.30
2022-10-31T23:53:09.804Z,8.75
2022-10-31T23:58:11.200Z,8.27
